NY Terminal Aviation Weather Discussion (AFD) - Prepared: 732 AM EDT TUE SEP 30 2014
A COLD FRONT IS SLIDING SOUTH ACROSS THE NY METRO THIS MORNING.
THE FRONT SAGS SOUTH OF THE REGION THIS MORNING AS HIGH PRESSURE
BUILDS OVER NEW ENGLAND.

IFR CIGS ARE LOCATED BEHIND THE FRONT. THESE ARE NOW INTO KLGA AND
KISP AS OF 11Z. EXPECTING SLOW IMPROVEMENT BY MID MORNING FROM EAST
TO WEST...THOUGH UNSURE OF TIMING DETAILS AND RATE OF IMPROVEMENT.

FAIRLY CONFIDENT THAT WE'LL BE VFR IN THE AFTERNOON WITH WESTERN
SECTIONS THE LAST TO IMPROVE.

SOME LIGHT RAIN WITH SCATTERED SHOWERS POSSIBLE EASTERN SECTIONS
TODAY.

5 Day General Aviation Outlook:

.OUTLOOK FOR 12Z WEDNESDAY THROUGH SATURDAY...
.LATE T0NIGHT...MVFR OR LOWER CIGS POSSIBLE. CHC -SHRA E-NE WINDS
AROUND 10 KT.
.WED...MVFR LOCALLY IFR CIGS/VSBYS/-SHRA. E-NE WINDS 10-15 WITH G
20 KT ALONG THE COAST.
.THU...CHC MVFR MAINLY AM. NE WINDS AROUND 10 KT.
.FRI...VFR. SE-S WINDS AROUND 10 KT.
.SAT...RAIN LIKELY - MVFR OR LOWER IN THE AM. SW WINDS AM BECMG WNW
PM. GUSTS 20-25KT LIKELY LATE.


NY Metro Terminal Aviation Weather Summary: (Explanation of Color Coding)
NOTE: All Wind Directions are TRUE (add 13 degrees for magnetic directions). Tail and Crosswind Calculations do account for the magnetic deviation of runways.

Click on the Airport Below for Specific Information at that Terminal

TAF Overview JFK TAF LGA TAF EWR TAF TEB TAF HPN TAF ISP TAF

Jump to AirSpace Impacts Section Condensed "lite" version of SPA page
**************************************************************************************
KJFK Terminal Weather: (Wind Directions Are True, Except Where Noted, ADD 13 degrees for Magnetic)

5MIN KJFK 301140Z 24007KT 10SM OVC080 20/13 A2997 -20 
     63 600 250/07 RMK AO2 $
5MIN KJFK 301135Z 25007KT 10SM OVC080 20/12 A2997 -20 
     60 600 260/07 RMK AO2 $
********************************************
****        MAGNETIC DIRECTIONS         ****
********************************************
KJFK 09/30/2014 11:51:50 GMT 250 05 KT
KJFK 09/30/2014 11:48:59 GMT 240 06 KT
KJFK 09/30/2014 11:47:21 GMT 230 06 KT
KJFK 09/30/2014 11:44:59 GMT 240 06 KT
KJFK 09/30/2014 11:42:59 GMT 240 05 KT
KJFK 09/30/2014 11:41:21 GMT 240 06 KT
KJFK 09/30/2014 11:38:59 GMT 240 07 KT
KJFK 09/30/2014 11:36:59 GMT 250 07 KT
KJFK 09/30/2014 11:35:21 GMT 260 07 KT
KJFK 09/30/2014 11:33:00 GMT 270 07 KT
SAUS70 KJFK 301100 RRJ
METAR KJFK 301051Z 30004KT 8SM FEW037 BKN090 OVC140 19/16 A2995 RMK AO2
     SLP142 T01940161
FTNA35 KJFK 301130 RRB
KJFK 301124Z 3012/0118 VRB03KT P6SM FEW008 OVC070
     FM301300 10008KT P6SM BKN010
     FM301500 11006KT P6SM BKN025
     FM301730 09006KT P6SM SCT030 BKN080
     FM010200 05010KT P6SM OVC012
     FM011300 03012G18KT P6SM OVC012
KJFK Forecaster Comments Not Available at This Time
jfk

JFK Hourly Forecast Temperature (C)

JFK Hourly TMPS
**************************************************************************************
KLGA Terminal Weather: (Wind Directions Are True, Except Where Noted, ADD 13 degrees for Magnetic)

5MIN KLGA 301140Z 34003KT 21/18 A2996 0 84 700 360/03 
     RMK AO2 RVRNO CHINO R22 SW VISNO R22 SW $
********************************************
****        MAGNETIC DIRECTIONS         ****
********************************************
KLGA 09/30/2014 11:52:00 GMT 010 05 KT
KLGA 09/30/2014 11:50:01 GMT 010 06 KT
KLGA 09/30/2014 11:48:01 GMT 020 06 KT
KLGA 09/30/2014 11:46:00 GMT 050 03 KT
KLGA 09/30/2014 11:44:00 GMT 050 04 KT
KLGA 09/30/2014 11:42:00 GMT 020 06 KT
KLGA 09/30/2014 11:39:59 GMT 010 03 KT
KLGA 09/30/2014 11:38:01 GMT CAL  KT
KLGA 09/30/2014 11:36:00 GMT CAL  KT
KLGA 09/30/2014 11:34:01 GMT 020 03 KT
SPUS70 KLGA 301102
SPECI KLGA 301059Z 00000KT 5SM BR SCT008 SCT014 BKN031 BKN250 20/18
     A2994 RMK AO2
FTUS80 KLGA 301127 RRB
KLGA 301124Z 3012/0112 06006KT 6SM BR VCSH BKN007
     FM301330 07007KT P6SM BKN015
     FM301500 07008KT P6SM BKN025
     FM301730 08008KT P6SM SCT030 BKN080
     FM010200 05012KT P6SM OVC012
KLGA FCSTER COMMENTS: EXPECT GRADUAL RAISING OF THE CIG THIS
MORNING. HIGH CONFIDENCE IN SFC WIND FCST.

lga


**************************************************************************************

KEWR Terminal Weather: (Wind Directions Are True, Except Where Noted, ADD 13 degrees for Magnetic)

5MIN KEWR 301140Z 00000KT 10SM FEW009 BKN080 BKN170 
     19/16 A2995 -10 81 500 000/00 RMK AO2
5MIN KEWR 301135Z 00000KT 10SM FEW009 BKN080 BKN170 
     19/16 A2995 -10 81 500 000/00 RMK AO2 TSNO
********************************************
****        MAGNETIC DIRECTIONS         ****
********************************************
KEWR 09/30/2014 11:51:35 GMT CAL  KT
KEWR 09/30/2014 11:49:35 GMT CAL  KT
KEWR 09/30/2014 11:47:35 GMT CAL  KT
KEWR 09/30/2014 11:45:35 GMT CAL  KT
KEWR 09/30/2014 11:43:35 GMT CAL  KT
KEWR 09/30/2014 11:41:36 GMT CAL  KT
KEWR 09/30/2014 11:39:36 GMT CAL  KT
KEWR 09/30/2014 11:37:36 GMT CAL  KT
KEWR 09/30/2014 11:35:36 GMT CAL  KT
KEWR 09/30/2014 11:33:36 GMT CAL  KT
SAUS70 KEWR 301100
METAR KEWR 301051Z 16003KT 10SM FEW006 BKN070 BKN170 19/16 A2995 RMK AO2
     SLP141 T01940161
FTUS80 KEWR 301127 RRA
KEWR 301124Z 3012/0118 VRB03KT P6SM OVC070
     FM301300 08006KT P6SM BKN018
     FM302000 12006KT P6SM SCT030 BKN080
     FM010400 05009KT P6SM OVC012
KEWR FCSTER COMMENTS: UNCERTAINTY IN ARRIVAL TIME OF MVFR CIG THIS
AM.

ewr
Afternoon EWR Haze Potential Forecast: green
THE AFTERNOON KEWR HAZE POTENTIAL FORECAST IS GREEN...WHICH
IMPLIES SLANT RANGE VISIBILITY 7SM OR GREATER OUTSIDE OF CLOUD.


******************************************************************************

KTEB Terminal Weather:
SAUS80 KTEB 301100
METAR KTEB 301051Z 14003KT 10SM OVC080 19/16 A2994 RMK AO2 SLP137
     T01890156
FTUS80 KTEB 301127 RRE
KTEB 301124Z 3012/0112 00000KT P6SM BKN007 OVC070
     FM301300 08005KT P6SM BKN015
     FM301700 11006KT P6SM BKN025
     FM301930 12006KT P6SM SCT030 BKN080
     FM010400 05009KT P6SM OVC012
KTEB FCSTER COMMENTS: UNCERTAINTY IN CIG HEIGHT THIS AM. 

teb

 


**************************************************************************************

KHPN Terminal Weather:
SAUS70 KHPN 301100 RRG
METAR KHPN 301056Z 09005KT 1 1/2SM BR OVC004 18/17 A2996 RMK AO2 CIG
     004V008 SLP141 T01830167
FTUS80 KHPN 301127 RRA
KHPN 301124Z 3012/0112 10004KT 1SM BR VV003
     FM301300 10003KT 3SM BR OVC006
     FM301600 10005KT 6SM BR OVC015
     FM301800 09005KT P6SM BKN035
     FM010200 05007KT P6SM BKN012
     FM010500 04010KT P6SM OVC008 AMD NOT SKED
KHPN FCSTER COMMENTS: CONFIDENT IN THE IMPROVEMENT THIS
MORNING...THOUGH UNCERTAINTY IN THE TIMING.

HPN


******************************************************************************

KISP Terminal Weather:
SAUS70 KISP 301100 RRG
METAR KISP 301056Z 05006KT 2SM BR OVC004 18/17 A2993 RMK AO2 RAB28E38
     SLP135 P0000 T01830172
FTUS80 KISP 301127 RRB
KISP 301124Z 3012/0112 08007KT 5SM -RA BR OVC004
     FM301300 09007KT 6SM -RA BR OVC007
     FM301630 10009KT P6SM OVC015
     FM301800 10010KT P6SM SCT015 BKN080
     FM010300 06012KT P6SM OVC015
KISP FCSTER COMMENTS: TIMING OF CIG IMPROVEMENT COULD BE +/- 1-2
HOURS. 

ISP

 


ZNY SWAP Season Information

(ZNY SWAP STATEMENT) (Click for PDF File) (ZNY BRIEFING) (Click for PDF File)

*******************************************************
***        NY AIR ROUTE TRAFFIC CONTROL CENTER      ***
***                DAILY SWAP STATEMENT             ***
*******************************************************
NY AIR ROUTE TRAFFIC CONTROL CENTER
DAILY SWAP STATEMENT
MONDAY,  SEPTEMBER 29, 2014
SWAP IS NOT EXPECTED.
ADDT'L INFO:
AZEZU-PAEPR-HANRI(L453-M201):  NO IMPACTS EXPECTED. 
DITCH: NO IMPACTS EXPECTED.
EAST GATES: NO IMPACTS EXPECTED.
TOMORROW MORNINGS SWAP OUTLOOK:  SWAP IS NOT EXPECTED.
$$
KS








N90 AirSpace Impacts

N90 ZNY Gate TSTM Forecast    SWAP Day One Forecast

SWAP Day One Forecast    SWAP Day Two Outlook

National Collaborative Convective Forecast Product (CCFP) Forecasts (Mar-Oct)


Vertical Wind Profile
Untitled Document